createdAt,value
2017-09-04T00:01:03.661Z,4.47
2017-09-04T00:03:34.209Z,3.73
2017-09-04T00:06:05.640Z,5.40
2017-09-04T00:08:37.407Z,3.97
2017-09-04T00:11:07.949Z,4.40
2017-09-04T00:13:38.653Z,5.10
2017-09-04T00:16:09.586Z,4.63
2017-09-04T00:18:40.190Z,3.30
2017-09-04T00:21:10.906Z,3.67
2017-09-04T00:23:41.604Z,4.90
2017-09-04T00:26:12.370Z,4.40
2017-09-04T00:28:43.354Z,4.43
2017-09-04T00:31:14.376Z,6.43
2017-09-04T00:33:45.467Z,4.03
2017-09-04T00:36:17.166Z,4.80
2017-09-04T00:38:47.741Z,5.93
2017-09-04T00:41:18.354Z,5.30
2017-09-04T00:43:48.849Z,4.37
2017-09-04T00:46:19.915Z,4.07
2017-09-04T00:48:50.855Z,5.20
2017-09-04T00:51:21.642Z,3.60
2017-09-04T00:53:52.873Z,3.60
2017-09-04T00:56:24.118Z,3.90
2017-09-04T00:58:54.863Z,4.67
2017-09-04T01:01:26.263Z,5.13
2017-09-04T01:03:57.204Z,4.33
2017-09-04T01:06:28.860Z,4.97
2017-09-04T01:08:59.799Z,5.07
2017-09-04T01:11:30.483Z,5.70
2017-09-04T01:14:01.775Z,3.80
2017-09-04T01:16:32.552Z,3.07
2017-09-04T01:19:03.624Z,4.50
2017-09-04T01:21:34.903Z,3.97
2017-09-04T01:24:06.253Z,4.00
2017-09-04T01:26:36.858Z,3.33
2017-09-04T01:45:40.480Z,3.30
2017-09-04T01:51:46.626Z,3.53
2017-09-04T01:54:17.758Z,4.20
2017-09-04T01:56:48.750Z,4.40
2017-09-04T01:59:19.677Z,4.20
2017-09-04T02:01:50.283Z,5.63
2017-09-04T02:04:21.045Z,8.00
2017-09-04T02:06:53.197Z,4.90
2017-09-04T02:09:23.478Z,5.20
2017-09-04T02:11:54.817Z,6.20
2017-09-04T02:14:25.482Z,4.47
2017-09-04T02:16:57.158Z,5.00
2017-09-04T02:19:27.752Z,5.23
2017-09-04T02:21:59.510Z,5.47
2017-09-04T02:24:31.823Z,3.80
2017-09-04T02:27:03.112Z,4.27
2017-09-04T02:29:33.749Z,5.83
2017-09-04T02:32:05.615Z,5.87
2017-09-04T02:34:36.352Z,5.50
2017-09-04T02:37:08.093Z,5.57
2017-09-04T02:39:39.747Z,6.40
2017-09-04T02:42:10.954Z,5.30
2017-09-04T02:44:42.245Z,4.97
2017-09-04T02:47:13.148Z,7.93
2017-09-04T02:49:44.034Z,11.77
2017-09-04T02:52:15.281Z,12.00
2017-09-04T02:54:46.198Z,12.40
2017-09-04T02:57:17.159Z,9.73
2017-09-04T02:59:50.958Z,12.23
2017-09-04T03:02:28.259Z,9.27
2017-09-04T03:04:59.406Z,11.90
2017-09-04T03:07:30.486Z,10.73
2017-09-04T03:10:01.376Z,11.43
2017-09-04T03:12:32.366Z,9.93
2017-09-04T03:15:03.147Z,10.27
2017-09-04T03:17:33.895Z,10.07
2017-09-04T03:20:05.615Z,9.53
2017-09-04T03:22:36.863Z,9.00
2017-09-04T03:25:07.766Z,7.37
2017-09-04T03:27:38.842Z,11.50
2017-09-04T03:30:10.562Z,8.30
2017-09-04T03:32:41.960Z,8.10
2017-09-04T03:35:12.673Z,7.83
2017-09-04T03:37:44.306Z,9.00
2017-09-04T03:40:15.223Z,6.40
2017-09-04T03:42:46.927Z,7.30
2017-09-04T03:45:17.853Z,9.00
2017-09-04T03:47:49.109Z,8.27
2017-09-04T03:50:19.995Z,6.87
2017-09-04T03:52:51.663Z,11.40
2017-09-04T03:55:22.680Z,10.97
2017-09-04T03:57:53.777Z,7.13
2017-09-04T04:00:24.782Z,8.60
2017-09-04T04:02:56.017Z,8.50
2017-09-04T04:05:26.498Z,6.33
2017-09-04T04:07:57.281Z,9.10
2017-09-04T04:10:28.556Z,10.73
2017-09-04T04:13:01.411Z,9.03
2017-09-04T04:15:31.998Z,14.73
2017-09-04T04:18:04.084Z,9.50
2017-09-04T04:20:35.318Z,12.70
2017-09-04T04:23:05.880Z,10.83
2017-09-04T04:25:36.510Z,12.20
2017-09-04T04:28:10.738Z,10.20
2017-09-04T04:30:45.069Z,7.00
2017-09-04T04:33:23.886Z,9.30
2017-09-04T04:36:00.833Z,9.87
2017-09-04T04:38:32.766Z,10.40
2017-09-04T04:41:03.400Z,7.30
2017-09-04T04:43:34.188Z,10.00
2017-09-04T04:46:06.004Z,6.30
2017-09-04T04:48:36.735Z,6.43
2017-09-04T04:51:07.256Z,10.83
2017-09-04T04:53:38.106Z,5.67
2017-09-04T04:56:08.719Z,6.83
2017-09-04T04:58:39.816Z,10.73
2017-09-04T05:01:10.747Z,8.87
2017-09-04T05:03:42.363Z,10.37
2017-09-04T05:06:13.530Z,11.90
2017-09-04T05:08:46.194Z,10.20
2017-09-04T05:11:16.806Z,11.60
2017-09-04T05:13:47.577Z,13.30
2017-09-04T05:16:18.076Z,8.77
2017-09-04T05:18:48.672Z,8.90
2017-09-04T05:21:20.191Z,9.90
2017-09-04T05:23:54.936Z,8.73
2017-09-04T05:26:26.174Z,7.90
2017-09-04T05:29:00.066Z,10.10
2017-09-04T05:31:33.532Z,16.77
2017-09-04T05:34:04.646Z,8.97
2017-09-04T05:36:35.244Z,16.03
2017-09-04T05:39:06.551Z,9.13
2017-09-04T05:41:37.406Z,9.17
2017-09-04T05:44:08.121Z,11.90
2017-09-04T05:46:39.148Z,10.63
2017-09-04T05:49:10.096Z,10.90
2017-09-04T05:51:40.625Z,13.40
2017-09-04T05:54:11.040Z,15.50
2017-09-04T05:56:41.417Z,11.20
2017-09-04T05:59:12.025Z,11.57
2017-09-04T06:01:43.860Z,11.17
2017-09-04T06:04:14.446Z,13.80
2017-09-04T06:06:45.051Z,15.10
2017-09-04T06:09:15.608Z,11.93
2017-09-04T06:11:46.220Z,12.17
2017-09-04T06:14:16.970Z,13.77
2017-09-04T06:16:48.211Z,15.20
2017-09-04T06:19:18.789Z,14.10
2017-09-04T06:21:50.323Z,15.43
2017-09-04T06:24:20.829Z,15.30
2017-09-04T06:26:51.583Z,14.50
2017-09-04T06:29:22.504Z,14.77
2017-09-04T06:31:53.521Z,15.90
2017-09-04T06:34:23.864Z,13.87
2017-09-04T06:36:54.386Z,15.43
2017-09-04T06:39:26.123Z,16.50
2017-09-04T06:41:56.680Z,15.83
2017-09-04T06:44:27.271Z,14.17
2017-09-04T06:46:58.809Z,15.00
2017-09-04T06:49:29.188Z,15.30
2017-09-04T06:51:59.652Z,13.50
2017-09-04T06:54:30.009Z,13.97
2017-09-04T06:57:01.136Z,13.30
2017-09-04T06:59:31.635Z,14.43
2017-09-04T07:02:02.067Z,12.40
2017-09-04T07:04:33.196Z,12.33
2017-09-04T07:07:03.947Z,11.53
2017-09-04T07:09:34.770Z,13.33
2017-09-04T07:12:05.282Z,13.03
2017-09-04T07:14:35.773Z,11.00
2017-09-04T07:17:06.237Z,12.07
2017-09-04T07:19:36.581Z,10.57
2017-09-04T07:22:07.051Z,10.80
2017-09-04T07:24:37.430Z,12.03
2017-09-04T07:27:07.776Z,10.90
2017-09-04T07:29:38.215Z,12.30
2017-09-04T07:32:08.608Z,10.70
2017-09-04T07:34:39.019Z,11.33
2017-09-04T07:37:10.091Z,11.60
2017-09-04T07:39:40.960Z,11.50
2017-09-04T07:42:11.302Z,9.80
2017-09-04T07:44:41.597Z,11.33
2017-09-04T07:47:11.905Z,8.50
2017-09-04T07:49:42.567Z,10.40
2017-09-04T07:52:13.051Z,10.03
2017-09-04T07:54:43.510Z,10.13
2017-09-04T07:57:13.986Z,9.70
2017-09-04T07:59:45.959Z,9.20
2017-09-04T08:02:17.561Z,8.70
2017-09-04T08:04:48.225Z,8.50
2017-09-04T08:07:18.824Z,8.47
2017-09-04T08:09:49.282Z,8.10
2017-09-04T08:12:19.937Z,7.73
2017-09-04T08:14:50.477Z,7.90
2017-09-04T08:17:20.925Z,8.80
2017-09-04T08:19:51.502Z,7.67
2017-09-04T08:22:21.979Z,7.60
2017-09-04T08:24:52.420Z,7.13
2017-09-04T08:27:22.718Z,7.10
2017-09-04T08:29:52.999Z,8.30
2017-09-04T08:32:23.328Z,7.60
2017-09-04T08:34:53.755Z,6.97
2017-09-04T08:37:24.213Z,7.10
2017-09-04T08:39:55.277Z,7.10
2017-09-04T08:42:25.795Z,6.20
2017-09-04T08:44:56.447Z,7.27
2017-09-04T08:47:26.802Z,7.67
2017-09-04T08:49:57.175Z,6.93
2017-09-04T08:52:27.915Z,7.23
2017-09-04T08:54:58.333Z,7.43
2017-09-04T08:57:29.517Z,7.33
2017-09-04T09:00:01.657Z,6.47
2017-09-04T09:02:33.585Z,7.10
2017-09-04T09:05:04.012Z,6.70
2017-09-04T09:07:34.466Z,7.43
2017-09-04T09:10:05.002Z,6.57
2017-09-04T09:12:35.495Z,6.80
2017-09-04T09:15:05.957Z,6.83
2017-09-04T09:17:36.477Z,5.73
2017-09-04T09:20:07.214Z,6.90
2017-09-04T09:22:37.679Z,5.80
2017-09-04T09:25:08.229Z,5.60
2017-09-04T09:27:38.852Z,7.33
2017-09-04T09:30:09.366Z,5.97
2017-09-04T09:32:40.070Z,6.30
2017-09-04T09:35:10.426Z,6.23
2017-09-04T09:37:41.031Z,6.00
2017-09-04T09:40:12.377Z,5.70
2017-09-04T09:42:44.205Z,8.00
2017-09-04T09:45:14.933Z,7.70
2017-09-04T09:47:45.724Z,5.70
2017-09-04T09:50:16.165Z,7.90
2017-09-04T09:52:46.689Z,7.40
2017-09-04T09:55:18.443Z,7.90
2017-09-04T09:57:49.030Z,7.60
2017-09-04T10:00:19.554Z,7.07
2017-09-04T10:02:50.190Z,7.07
2017-09-04T10:05:29.028Z,6.63
2017-09-04T10:08:01.745Z,6.90
2017-09-04T10:10:32.372Z,7.87
2017-09-04T10:13:03.193Z,7.80
2017-09-04T10:16:15.054Z,9.63
2017-09-04T10:19:06.231Z,9.43
2017-09-04T10:21:36.789Z,8.63
2017-09-04T10:24:07.221Z,8.00
2017-09-04T10:26:37.818Z,8.57
2017-09-04T10:29:08.209Z,9.37
2017-09-04T10:31:38.753Z,8.00
2017-09-04T10:34:10.051Z,8.07
2017-09-04T10:36:40.863Z,6.97
2017-09-04T10:39:11.876Z,6.90
2017-09-04T10:41:42.410Z,8.70
2017-09-04T10:44:12.891Z,7.80
2017-09-04T10:46:43.654Z,7.07
2017-09-04T10:49:14.813Z,7.73
2017-09-04T10:51:45.475Z,7.67
2017-09-04T10:54:16.077Z,6.07
2017-09-04T10:56:46.634Z,5.83
2017-09-04T10:59:17.589Z,6.10
2017-09-04T11:01:48.137Z,5.20
2017-09-04T11:04:18.695Z,6.60
2017-09-04T11:06:49.056Z,8.27
2017-09-04T11:09:19.577Z,5.97
2017-09-04T11:11:50.314Z,5.00
2017-09-04T11:14:20.918Z,6.30
2017-09-04T11:16:51.515Z,6.73
2017-09-04T11:19:22.081Z,5.60
2017-09-04T11:21:52.764Z,8.70
2017-09-04T11:24:23.659Z,7.80
2017-09-04T11:26:54.263Z,5.20
2017-09-04T11:29:24.759Z,4.93
2017-09-04T11:31:55.673Z,5.90
2017-09-04T11:34:26.122Z,7.30
2017-09-04T11:36:56.783Z,6.40
2017-09-04T11:39:27.621Z,6.50
2017-09-04T11:41:58.003Z,6.50
2017-09-04T11:44:28.426Z,6.87
2017-09-04T11:46:59.234Z,5.87
2017-09-04T11:49:30.474Z,6.33
2017-09-04T11:52:01.851Z,5.90
2017-09-04T11:54:32.326Z,5.50
2017-09-04T11:57:02.702Z,6.70
2017-09-04T11:59:33.177Z,6.20
2017-09-04T12:02:03.758Z,5.40
2017-09-04T12:04:34.410Z,5.20
2017-09-04T12:07:05.378Z,5.73
2017-09-04T12:09:36.294Z,5.30
2017-09-04T12:12:07.053Z,4.20
2017-09-04T12:14:37.441Z,4.53
2017-09-04T12:17:09.821Z,4.17
2017-09-04T12:19:40.581Z,3.83
2017-09-04T12:22:10.921Z,5.57
2017-09-04T12:24:41.444Z,4.73
2017-09-04T12:27:12.074Z,4.80
2017-09-04T12:29:43.103Z,4.10
2017-09-04T12:32:13.654Z,5.13
2017-09-04T12:34:44.070Z,5.13
2017-09-04T12:37:14.860Z,5.73
2017-09-04T12:39:46.325Z,5.93
2017-09-04T12:42:17.549Z,5.47
2017-09-04T12:44:48.773Z,4.50
2017-09-04T12:47:19.649Z,4.47
2017-09-04T12:49:50.225Z,4.53
2017-09-04T12:52:20.632Z,4.53
2017-09-04T12:54:51.115Z,4.57
2017-09-04T12:57:22.249Z,4.47
2017-09-04T12:59:52.935Z,3.83
2017-09-04T13:02:23.429Z,4.00
2017-09-04T13:04:53.910Z,4.80
2017-09-04T13:07:24.814Z,3.87
2017-09-04T13:10:00.232Z,3.80
2017-09-04T13:12:31.671Z,4.30
2017-09-04T13:15:06.093Z,5.37
2017-09-04T13:17:41.070Z,4.03
2017-09-04T13:20:16.275Z,5.50
2017-09-04T13:22:57.579Z,5.13
2017-09-04T13:25:32.260Z,4.73
2017-09-04T13:28:06.637Z,6.17
2017-09-04T13:30:41.828Z,6.17
2017-09-04T13:33:16.546Z,4.60
2017-09-04T13:35:50.926Z,4.20
2017-09-04T13:38:26.456Z,4.20
2017-09-04T13:41:01.993Z,3.93
2017-09-04T13:43:36.525Z,5.40
2017-09-04T13:46:18.248Z,4.70
2017-09-04T13:48:53.043Z,3.47
2017-09-04T13:51:25.005Z,5.17
2017-09-04T13:53:59.539Z,4.70
2017-09-04T13:56:30.917Z,5.03
2017-09-04T13:59:01.603Z,4.63
2017-09-04T14:01:32.757Z,4.33
2017-09-04T14:04:04.373Z,4.80
2017-09-04T14:06:35.765Z,5.57
2017-09-04T14:09:06.556Z,4.80
2017-09-04T14:11:37.973Z,4.90
2017-09-04T14:14:13.474Z,4.67
2017-09-04T14:16:43.968Z,4.67
2017-09-04T14:19:14.409Z,5.10
2017-09-04T14:21:45.266Z,4.87
2017-09-04T14:24:15.708Z,5.57
2017-09-04T14:26:46.468Z,5.13
2017-09-04T14:29:16.981Z,5.27
2017-09-04T14:31:47.603Z,5.90
2017-09-04T14:34:18.121Z,4.03
2017-09-04T14:36:48.646Z,5.93
2017-09-04T14:39:19.136Z,5.37
2017-09-04T14:41:49.902Z,5.30
2017-09-04T14:44:21.486Z,5.30
2017-09-04T14:46:52.802Z,5.30
2017-09-04T14:49:23.514Z,5.77
2017-09-04T14:51:54.185Z,5.00
2017-09-04T14:54:25.084Z,5.37
2017-09-04T14:56:55.774Z,6.40
2017-09-04T14:59:26.501Z,6.40
2017-09-04T15:01:57.590Z,5.70
2017-09-04T15:04:28.143Z,6.57
2017-09-04T15:06:59.720Z,7.33
2017-09-04T15:09:30.407Z,5.77
2017-09-04T15:12:01.068Z,6.00
2017-09-04T15:14:31.893Z,6.97
2017-09-04T15:17:02.379Z,6.27
2017-09-04T15:19:33.784Z,5.50
2017-09-04T15:22:05.346Z,5.93
2017-09-04T15:24:35.921Z,5.70
2017-09-04T15:27:06.805Z,6.90
2017-09-04T15:29:37.419Z,5.70
2017-09-04T15:32:08.698Z,7.47
2017-09-04T15:34:39.643Z,6.97
2017-09-04T15:37:10.131Z,5.97
2017-09-04T15:39:40.710Z,6.70
2017-09-04T15:42:11.753Z,6.57
2017-09-04T15:44:42.298Z,6.80
2017-09-04T15:47:13.503Z,7.17
2017-09-04T15:49:44.590Z,8.60
2017-09-04T15:52:15.151Z,7.10
2017-09-04T15:54:46.008Z,6.70
2017-09-04T15:57:16.817Z,6.80
2017-09-04T15:59:47.609Z,7.10
2017-09-04T16:02:18.094Z,7.57
2017-09-04T16:04:48.774Z,6.33
2017-09-04T16:07:20.860Z,6.27
2017-09-04T16:09:51.614Z,6.80
2017-09-04T16:12:24.165Z,6.60
2017-09-04T16:14:56.776Z,6.00
2017-09-04T16:17:28.992Z,5.73
2017-09-04T16:19:59.954Z,5.20
2017-09-04T16:22:31.625Z,6.13
2017-09-04T16:25:03.024Z,7.43
2017-09-04T16:27:34.275Z,4.53
2017-09-04T16:30:04.793Z,6.67
2017-09-04T16:32:35.681Z,4.70
2017-09-04T16:35:06.826Z,5.60
2017-09-04T16:37:38.282Z,6.60
2017-09-04T16:40:09.778Z,3.70
2017-09-04T16:42:43.821Z,5.20
2017-09-04T16:45:20.186Z,7.90
2017-09-04T16:47:54.630Z,3.43
2017-09-04T16:50:26.186Z,5.33
2017-09-04T16:52:59.458Z,4.00
2017-09-04T16:55:30.846Z,3.83
2017-09-04T16:58:01.685Z,5.13
2017-09-04T17:00:35.386Z,5.73
2017-09-04T17:03:07.826Z,4.70
2017-09-04T17:05:41.438Z,5.00
2017-09-04T17:08:13.677Z,5.73
2017-09-04T17:10:47.574Z,3.77
2017-09-04T17:13:18.601Z,4.80
2017-09-04T17:15:49.289Z,5.10
2017-09-04T17:18:22.510Z,5.80
2017-09-04T17:20:53.680Z,4.43
2017-09-04T17:23:25.061Z,5.50
2017-09-04T17:25:56.576Z,3.30
2017-09-04T17:28:29.598Z,4.53
2017-09-04T17:31:01.967Z,3.60
2017-09-04T17:33:33.180Z,4.53
2017-09-04T17:36:03.993Z,4.13
2017-09-04T17:38:35.826Z,3.50
2017-09-04T17:41:06.320Z,3.50
2017-09-04T17:43:37.708Z,3.47
2017-09-04T17:46:08.527Z,3.30
2017-09-04T17:48:39.054Z,3.63
2017-09-04T17:51:10.919Z,5.00
2017-09-04T17:53:41.309Z,3.20
2017-09-04T17:56:12.207Z,3.20
2017-09-04T17:58:43.296Z,2.93
2017-09-04T18:01:13.770Z,2.97
2017-09-04T18:03:44.347Z,2.63
2017-09-04T18:06:15.509Z,4.23
2017-09-04T18:08:46.359Z,3.87
2017-09-04T18:11:17.258Z,3.63
2017-09-04T18:13:48.178Z,4.03
2017-09-04T18:16:18.798Z,4.10
2017-09-04T18:18:50.329Z,4.10
2017-09-04T18:21:21.162Z,6.23
2017-09-04T18:23:51.874Z,4.30
2017-09-04T18:26:22.382Z,5.17
2017-09-04T18:28:52.750Z,4.00
2017-09-04T18:31:24.104Z,3.50
2017-09-04T18:33:54.942Z,3.50
2017-09-04T18:36:25.651Z,4.47
2017-09-04T18:38:56.805Z,4.20
2017-09-04T18:41:27.430Z,3.30
2017-09-04T18:43:58.466Z,3.70
2017-09-04T18:46:29.531Z,3.67
2017-09-04T18:49:00.749Z,4.60
2017-09-04T18:51:31.918Z,3.87
2017-09-04T18:54:03.041Z,5.97
2017-09-04T18:56:42.405Z,4.80
2017-09-04T18:59:18.319Z,5.50
2017-09-04T19:01:48.952Z,8.73
2017-09-04T19:04:19.626Z,6.20
2017-09-04T19:06:50.265Z,5.00
2017-09-04T19:09:21.065Z,6.07
2017-09-04T19:11:51.395Z,6.30
2017-09-04T19:14:21.912Z,7.30
2017-09-04T19:16:52.455Z,7.20
2017-09-04T19:19:23.522Z,5.20
2017-09-04T19:21:53.909Z,5.63
2017-09-04T19:24:35.529Z,5.20
2017-09-04T19:27:17.370Z,5.70
2017-09-04T19:29:56.238Z,5.30
2017-09-04T19:32:39.325Z,7.70
2017-09-04T19:35:12.260Z,6.27
2017-09-04T19:37:54.714Z,5.40
2017-09-04T19:40:38.050Z,4.40
2017-09-04T19:43:15.258Z,5.63
2017-09-04T19:45:55.212Z,5.33
2017-09-04T19:48:29.901Z,5.57
2017-09-04T19:51:05.218Z,5.23
2017-09-04T19:53:40.200Z,7.60
2017-09-04T19:56:11.371Z,7.13
2017-09-04T19:58:42.189Z,5.97
2017-09-04T20:01:13.337Z,5.80
2017-09-04T20:03:44.229Z,5.30
2017-09-04T20:06:14.877Z,7.40
2017-09-04T20:08:46.164Z,12.73
2017-09-04T20:11:17.041Z,8.23
2017-09-04T20:13:47.916Z,10.50
2017-09-04T20:16:19.095Z,11.13
2017-09-04T20:18:50.153Z,15.07
2017-09-04T20:21:22.853Z,18.33
2017-09-04T20:23:54.018Z,13.60
2017-09-04T20:26:24.796Z,13.97
2017-09-04T20:28:57.205Z,14.80
2017-09-04T20:31:28.550Z,9.87
2017-09-04T20:33:59.547Z,9.47
2017-09-04T20:36:31.924Z,10.17
2017-09-04T20:39:09.319Z,10.60
2017-09-04T20:41:40.646Z,11.40
2017-09-04T20:44:12.915Z,10.40
2017-09-04T20:46:43.771Z,7.67
2017-09-04T20:49:14.326Z,7.63
2017-09-04T20:51:44.850Z,6.60
2017-09-04T20:54:15.467Z,7.57
2017-09-04T20:56:46.439Z,7.43
2017-09-04T20:59:17.546Z,7.57
2017-09-04T21:01:49.093Z,11.87
2017-09-04T21:04:19.794Z,10.90
2017-09-04T21:06:50.311Z,7.43
2017-09-04T21:09:22.684Z,8.50
2017-09-04T21:11:53.341Z,10.30
2017-09-04T21:14:24.017Z,8.77
2017-09-04T21:16:54.917Z,6.03
2017-09-04T21:19:25.841Z,6.00
2017-09-04T21:21:57.165Z,6.30
2017-09-04T21:24:28.301Z,5.53
2017-09-04T21:26:59.126Z,6.27
2017-09-04T21:29:29.754Z,4.90
2017-09-04T21:32:00.888Z,6.07
2017-09-04T21:34:32.162Z,7.90
2017-09-04T21:37:02.979Z,8.07
2017-09-04T21:39:33.903Z,6.77
2017-09-04T21:42:05.069Z,5.90
2017-09-04T21:44:36.114Z,6.10
2017-09-04T21:47:06.822Z,5.90
2017-09-04T21:49:38.010Z,5.97
2017-09-04T21:52:09.061Z,8.80
2017-09-04T21:54:39.498Z,6.83
2017-09-04T21:57:10.342Z,6.47
2017-09-04T21:59:41.478Z,8.20
2017-09-04T22:02:12.583Z,8.10
2017-09-04T22:04:44.611Z,8.90
2017-09-04T22:07:15.601Z,9.87
2017-09-04T22:09:46.089Z,8.10
2017-09-04T22:12:16.413Z,9.30
2017-09-04T22:14:47.197Z,8.30
2017-09-04T22:17:17.798Z,7.47
2017-09-04T22:19:48.098Z,7.20
2017-09-04T22:22:19.571Z,9.40
2017-09-04T22:24:50.126Z,6.60
2017-09-04T22:27:21.745Z,11.50
2017-09-04T22:29:52.595Z,13.57
2017-09-04T22:32:23.590Z,12.50
2017-09-04T22:34:54.766Z,12.00
2017-09-04T22:37:25.955Z,7.87
2017-09-04T22:39:56.794Z,10.00
2017-09-04T22:42:27.549Z,9.80
2017-09-04T22:44:58.305Z,6.20
2017-09-04T22:47:29.274Z,6.80
2017-09-04T22:50:00.457Z,6.60
2017-09-04T22:52:31.665Z,5.63
2017-09-04T22:55:02.377Z,6.90
2017-09-04T22:57:33.654Z,4.83
2017-09-04T23:00:04.854Z,8.07
2017-09-04T23:02:35.657Z,5.90
2017-09-04T23:05:06.223Z,7.80
2017-09-04T23:07:37.919Z,6.60
2017-09-04T23:10:08.630Z,6.80
2017-09-04T23:12:39.656Z,5.20
2017-09-04T23:15:10.228Z,6.53
2017-09-04T23:17:41.160Z,5.40
2017-09-04T23:20:11.934Z,7.80
2017-09-04T23:22:42.831Z,5.70
2017-09-04T23:25:13.714Z,4.20
2017-09-04T23:27:44.281Z,4.97
2017-09-04T23:30:14.893Z,8.83
2017-09-04T23:32:46.262Z,5.60
2017-09-04T23:35:17.263Z,7.13
2017-09-04T23:37:48.206Z,6.60
2017-09-04T23:40:18.753Z,8.80
2017-09-04T23:42:49.575Z,8.27
2017-09-04T23:45:20.813Z,6.27
2017-09-04T23:47:51.640Z,6.30
2017-09-04T23:50:22.422Z,7.57
2017-09-04T23:52:53.358Z,5.20
2017-09-04T23:55:24.176Z,6.90
2017-09-04T23:57:54.905Z,5.73
